Time;durP1;ratioP1;P1;durP2;ratioP2;P2;SDS_P1;SDS_P2;PMS_P1;PMS_P2;Temp;Humidity;BMP_temperature;BMP_pressure;BME280_temperature;BME280_humidity;BME280_pressure;Samples;Min_cycle;Max_cycle;Signal;HPM_P1;HPM_P2
2021/12/18 00:01:33;;;;;;;244.63;87.40;;;;;;;;;;4981956;28;21166;-78
2021/12/18 00:03:59;;;;;;;287.80;86.70;;;;;;;;;;4985087;28;20549;-78
2021/12/18 00:06:27;;;;;;;242.40;95.43;;;;;;;;;;4967910;28;20431;-78
2021/12/18 00:08:54;;;;;;;285.00;93.60;;;;;;;;;;4983652;28;20452;-78
2021/12/18 00:11:20;;;;;;;134.77;72.13;;;;;;;;;;4972857;28;20409;-78
2021/12/18 00:13:49;;;;;;;148.43;76.20;;;;;;;;;;4983463;28;20417;-78
2021/12/18 00:16:15;;;;;;;140.77;76.40;;;;;;;;;;4969908;28;20925;-79
2021/12/18 00:18:43;;;;;;;139.07;71.43;;;;;;;;;;4984019;28;20456;-78
2021/12/18 00:21:14;;;;;;;357.07;104.93;;;;;;;;;;4982722;28;20455;-78
2021/12/18 00:23:40;;;;;;;226.53;85.57;;;;;;;;;;4983486;28;20794;-78
2021/12/18 00:26:06;;;;;;;149.57;75.50;;;;;;;;;;4983696;28;20432;-78
2021/12/18 00:28:33;;;;;;;138.30;74.93;;;;;;;;;;4981648;28;20452;-78
2021/12/18 00:30:59;;;;;;;143.00;76.80;;;;;;;;;;4979825;28;21237;-78
2021/12/18 00:33:27;;;;;;;175.27;82.10;;;;;;;;;;4999475;28;20409;-79
2021/12/18 00:36:02;;;;;;;144.13;77.17;;;;;;;;;;4982239;28;21627;-78
2021/12/18 00:38:30;;;;;;;190.67;85.13;;;;;;;;;;4980603;28;20431;-78
2021/12/18 00:44:01;;;;;;;148.53;75.00;;;;;;;;;;4981289;28;20416;-78
2021/12/18 00:46:25;;;;;;;179.50;71.43;;;;;;;;;;4970022;28;20475;-78
2021/12/18 00:48:52;;;;;;;178.87;84.73;;;;;;;;;;4981889;28;20452;-78
2021/12/18 00:51:18;;;;;;;124.03;67.13;;;;;;;;;;4980995;28;20412;-78
2021/12/18 00:53:44;;;;;;;159.60;73.87;;;;;;;;;;4984248;28;21177;-78
2021/12/18 00:56:11;;;;;;;143.10;75.23;;;;;;;;;;4965758;28;20425;-78
2021/12/18 00:58:37;;;;;;;127.60;67.83;;;;;;;;;;4982919;28;20420;-79
2021/12/18 01:01:08;;;;;;;139.93;70.50;;;;;;;;;;4963207;28;20437;-78
2021/12/18 01:03:35;;;;;;;151.10;66.67;;;;;;;;;;4983105;28;20445;-78
2021/12/18 01:06:02;;;;;;;156.90;69.23;;;;;;;;;;4978710;28;20494;-78
2021/12/18 01:08:28;;;;;;;155.27;70.63;;;;;;;;;;4995799;28;20731;-78
2021/12/18 01:11:31;;;;;;;153.13;69.67;;;;;;;;;;4978603;28;21380;-79
2021/12/18 01:24:46;;;;;;;296.57;90.20;;;;;;;;;;4979673;28;20415;-78
2021/12/18 01:27:12;;;;;;;201.37;82.37;;;;;;;;;;4975578;28;20440;-78
2021/12/18 01:29:39;;;;;;;234.23;79.47;;;;;;;;;;4978390;28;20451;-78
2021/12/18 01:32:06;;;;;;;264.13;82.93;;;;;;;;;;4970162;28;20429;-78
2021/12/18 01:34:32;;;;;;;164.60;78.00;;;;;;;;;;4982837;28;21404;-78
2021/12/18 01:36:58;;;;;;;143.87;71.90;;;;;;;;;;4980986;28;20567;-78
2021/12/18 01:39:25;;;;;;;169.63;73.83;;;;;;;;;;4969320;28;20497;-78
2021/12/18 01:52:52;;;;;;;154.23;68.77;;;;;;;;;;4980516;28;20442;-78
2021/12/18 01:55:19;;;;;;;137.30;71.53;;;;;;;;;;4978752;28;20431;-78
2021/12/18 01:57:46;;;;;;;301.23;90.57;;;;;;;;;;4978581;28;21329;-78
2021/12/18 02:00:21;;;;;;;145.47;74.90;;;;;;;;;;4981321;28;20486;-78
2021/12/18 02:02:48;;;;;;;137.57;73.30;;;;;;;;;;4982211;28;20632;-78
2021/12/18 02:05:15;;;;;;;120.50;65.83;;;;;;;;;;4982756;28;20424;-78
2021/12/18 02:07:42;;;;;;;150.67;75.87;;;;;;;;;;4976973;28;20421;-78
2021/12/18 02:10:17;;;;;;;145.80;76.23;;;;;;;;;;4981534;28;20586;-79
2021/12/18 02:20:57;;;;;;;175.40;82.10;;;;;;;;;;4981628;28;20459;-79
2021/12/18 02:23:23;;;;;;;160.50;79.73;;;;;;;;;;4964825;28;20533;-79
2021/12/18 02:25:50;;;;;;;190.60;84.47;;;;;;;;;;4965148;28;21201;-78
2021/12/18 02:28:21;;;;;;;248.73;90.93;;;;;;;;;;4964912;28;20464;-79
2021/12/18 02:30:49;;;;;;;164.63;79.53;;;;;;;;;;4981830;28;20412;-78
2021/12/18 02:33:16;;;;;;;158.93;69.60;;;;;;;;;;4980092;28;20448;-78
2021/12/18 02:35:49;;;;;;;136.17;67.93;;;;;;;;;;4983894;28;21203;-78
2021/12/18 02:38:19;;;;;;;132.30;71.30;;;;;;;;;;4979174;28;20455;-78
2021/12/18 02:43:16;;;;;;;145.77;72.97;;;;;;;;;;4983982;28;20464;-78
2021/12/18 02:45:42;;;;;;;133.87;69.47;;;;;;;;;;4982856;28;20512;-79
2021/12/18 02:48:11;;;;;;;123.70;67.50;;;;;;;;;;4977282;28;20456;-78
2021/12/18 02:50:41;;;;;;;122.30;64.47;;;;;;;;;;4963542;28;20425;-78
2021/12/18 02:53:08;;;;;;;134.83;71.13;;;;;;;;;;4981894;28;20432;-79
2021/12/18 02:55:34;;;;;;;139.87;72.17;;;;;;;;;;4979052;28;20441;-79
2021/12/18 02:58:00;;;;;;;161.57;68.13;;;;;;;;;;4996153;28;20439;-79
2021/12/18 03:00:28;;;;;;;126.53;66.00;;;;;;;;;;4981387;28;20760;-78
2021/12/18 03:02:55;;;;;;;122.97;64.73;;;;;;;;;;4976661;28;20436;-78
2021/12/18 03:05:30;;;;;;;128.60;64.00;;;;;;;;;;4981494;28;20439;-79
2021/12/18 03:08:05;;;;;;;149.97;64.20;;;;;;;;;;4970720;28;20459;-79
2021/12/18 03:24:34;;;;;;;189.33;62.30;;;;;;;;;;4973996;28;20786;-79
2021/12/18 03:27:01;;;;;;;167.20;59.57;;;;;;;;;;4975814;28;20490;-78
2021/12/18 03:29:27;;;;;;;174.90;60.93;;;;;;;;;;4979862;28;20571;-78
2021/12/18 03:31:54;;;;;;;161.63;59.27;;;;;;;;;;4980446;28;20421;-78
2021/12/18 03:34:21;;;;;;;104.23;55.80;;;;;;;;;;4981511;28;20453;-78
2021/12/18 03:36:48;;;;;;;113.73;55.90;;;;;;;;;;4969696;28;20934;-78
2021/12/18 03:39:17;;;;;;;106.17;56.73;;;;;;;;;;4978562;28;20459;-79
2021/12/18 03:41:44;;;;;;;112.53;59.27;;;;;;;;;;4979339;28;21299;-78
2021/12/18 03:44:10;;;;;;;100.17;55.03;;;;;;;;;;4982340;28;21214;-79
2021/12/18 03:46:36;;;;;;;108.40;57.27;;;;;;;;;;4964543;28;20420;-78
2021/12/18 03:49:03;;;;;;;95.93;52.20;;;;;;;;;;4980937;28;20459;-78
2021/12/18 03:51:29;;;;;;;94.83;52.47;;;;;;;;;;4981983;28;20467;-78
2021/12/18 03:53:56;;;;;;;93.57;54.17;;;;;;;;;;4964549;28;20427;-79
2021/12/18 03:56:22;;;;;;;87.27;49.63;;;;;;;;;;4979101;28;20428;-79
2021/12/18 03:58:48;;;;;;;118.33;60.53;;;;;;;;;;4984963;28;20518;-79
2021/12/18 04:01:15;;;;;;;144.43;63.13;;;;;;;;;;4983607;28;20574;-79
2021/12/18 04:03:41;;;;;;;106.23;57.17;;;;;;;;;;4981185;28;20903;-79
2021/12/18 04:06:08;;;;;;;108.47;52.80;;;;;;;;;;4982775;28;20439;-78
2021/12/18 04:08:35;;;;;;;97.80;53.43;;;;;;;;;;4981357;28;20462;-79
2021/12/18 04:11:02;;;;;;;86.47;50.00;;;;;;;;;;4982430;28;20490;-79
2021/12/18 04:13:30;;;;;;;91.43;52.57;;;;;;;;;;4981487;28;20479;-79
2021/12/18 04:15:56;;;;;;;102.17;56.63;;;;;;;;;;4972099;28;21598;-79
2021/12/18 04:18:23;;;;;;;95.43;53.77;;;;;;;;;;4979388;28;20453;-79
2021/12/18 04:20:50;;;;;;;93.87;52.47;;;;;;;;;;4981385;28;20519;-79
2021/12/18 04:23:16;;;;;;;174.93;62.63;;;;;;;;;;4971338;28;20456;-79
2021/12/18 04:25:43;;;;;;;113.83;56.83;;;;;;;;;;4972354;28;21056;-79
2021/12/18 04:28:10;;;;;;;97.43;53.07;;;;;;;;;;4979863;28;20457;-79
2021/12/18 04:30:36;;;;;;;113.73;59.30;;;;;;;;;;4967310;28;20437;-78
2021/12/18 04:33:03;;;;;;;124.73;62.07;;;;;;;;;;4967070;28;20428;-79
2021/12/18 04:35:29;;;;;;;171.03;68.07;;;;;;;;;;4965576;28;20416;-79
2021/12/18 04:37:56;;;;;;;119.93;59.83;;;;;;;;;;4967589;28;20546;-79
2021/12/18 04:40:26;;;;;;;148.03;67.50;;;;;;;;;;4977810;28;20431;-79
2021/12/18 04:42:53;;;;;;;129.83;65.27;;;;;;;;;;4981401;28;21306;-79
2021/12/18 04:45:20;;;;;;;208.77;75.83;;;;;;;;;;4996791;28;20468;-78
2021/12/18 04:47:46;;;;;;;223.13;79.67;;;;;;;;;;4979589;28;20532;-79
2021/12/18 04:50:13;;;;;;;116.20;62.57;;;;;;;;;;4984023;28;20531;-78
2021/12/18 04:52:39;;;;;;;400.27;88.43;;;;;;;;;;4986200;28;20420;-78
2021/12/18 04:55:06;;;;;;;178.20;65.53;;;;;;;;;;4974377;28;21675;-79
2021/12/18 04:57:32;;;;;;;386.03;88.57;;;;;;;;;;4985233;28;20417;-79
2021/12/18 04:59:59;;;;;;;342.20;88.83;;;;;;;;;;4985387;28;20456;-78
2021/12/18 05:02:36;;;;;;;239.30;83.20;;;;;;;;;;4982796;28;20803;-79
2021/12/18 05:05:03;;;;;;;116.20;60.03;;;;;;;;;;4963614;28;20451;-79
2021/12/18 05:07:29;;;;;;;115.57;60.03;;;;;;;;;;4981984;28;21258;-79
2021/12/18 05:09:56;;;;;;;157.53;69.07;;;;;;;;;;4983705;28;20455;-79
2021/12/18 05:12:22;;;;;;;138.27;67.67;;;;;;;;;;4982611;28;21027;-79
2021/12/18 05:14:48;;;;;;;105.00;57.87;;;;;;;;;;4980136;28;20495;-79
2021/12/18 05:17:14;;;;;;;354.73;90.77;;;;;;;;;;4981309;28;20458;-79
2021/12/18 05:19:42;;;;;;;178.50;75.37;;;;;;;;;;4999503;28;21074;-79
2021/12/18 05:22:08;;;;;;;131.57;61.83;;;;;;;;;;4979068;28;20440;-79
2021/12/18 05:24:37;;;;;;;159.80;71.83;;;;;;;;;;4970997;28;21300;-79
2021/12/18 05:27:06;;;;;;;122.97;61.77;;;;;;;;;;4979862;28;20651;-79
2021/12/18 05:29:32;;;;;;;221.70;77.57;;;;;;;;;;4968166;28;20519;-79
2021/12/18 05:31:58;;;;;;;102.23;56.93;;;;;;;;;;4985333;28;20656;-78
2021/12/18 05:34:32;;;;;;;136.90;67.10;;;;;;;;;;4983794;28;21329;-78
2021/12/18 05:39:26;;;;;;;121.97;61.93;;;;;;;;;;4985621;28;20672;-79
2021/12/18 05:41:53;;;;;;;102.53;57.00;;;;;;;;;;4985172;28;20761;-78
2021/12/18 05:44:21;;;;;;;166.17;71.23;;;;;;;;;;4978757;28;20420;-78
2021/12/18 05:46:48;;;;;;;129.47;66.07;;;;;;;;;;4982103;28;20840;-78
2021/12/18 05:49:16;;;;;;;137.17;66.80;;;;;;;;;;4980867;28;21263;-78
2021/12/18 05:51:45;;;;;;;160.37;72.80;;;;;;;;;;4981954;28;20424;-78
2021/12/18 05:54:12;;;;;;;231.80;81.97;;;;;;;;;;4983848;28;21360;-79
2021/12/18 05:56:38;;;;;;;104.60;58.00;;;;;;;;;;4982671;28;21394;-78
2021/12/18 05:59:05;;;;;;;95.13;51.90;;;;;;;;;;4968517;28;20484;-79
2021/12/18 06:01:31;;;;;;;102.87;55.67;;;;;;;;;;4966332;28;20859;-78
2021/12/18 06:03:58;;;;;;;103.63;56.47;;;;;;;;;;4965561;28;21104;-79
2021/12/18 06:06:25;;;;;;;132.50;63.80;;;;;;;;;;4977005;28;21057;-78
2021/12/18 06:08:52;;;;;;;111.27;59.30;;;;;;;;;;4983664;28;20547;-78
2021/12/18 06:11:21;;;;;;;138.40;63.57;;;;;;;;;;4977477;28;20867;-79
2021/12/18 06:13:51;;;;;;;188.33;73.57;;;;;;;;;;4968085;28;20487;-79
2021/12/18 06:16:19;;;;;;;257.10;79.80;;;;;;;;;;4997810;28;20547;-79
2021/12/18 06:18:47;;;;;;;149.17;65.63;;;;;;;;;;4986683;28;20490;-79
2021/12/18 06:21:13;;;;;;;185.13;71.73;;;;;;;;;;4979441;28;20440;-78
2021/12/18 06:23:40;;;;;;;243.40;81.83;;;;;;;;;;4968560;28;20428;-79
2021/12/18 06:26:07;;;;;;;109.37;58.70;;;;;;;;;;4982254;28;20425;-79
2021/12/18 06:28:33;;;;;;;284.03;84.17;;;;;;;;;;4971000;28;20456;-79
2021/12/18 06:31:01;;;;;;;165.10;68.73;;;;;;;;;;4966140;28;20511;-79
2021/12/18 06:33:31;;;;;;;195.17;82.17;;;;;;;;;;4969176;28;20522;-79
2021/12/18 06:35:57;;;;;;;200.90;75.17;;;;;;;;;;4979786;28;20538;-79
2021/12/18 06:38:23;;;;;;;157.60;73.30;;;;;;;;;;4979350;28;20429;-78
2021/12/18 06:40:50;;;;;;;241.80;79.03;;;;;;;;;;4981437;28;20463;-79
2021/12/18 06:43:17;;;;;;;130.70;66.47;;;;;;;;;;4982345;28;20432;-79
2021/12/18 06:45:43;;;;;;;168.77;75.40;;;;;;;;;;4979199;28;21168;-78
2021/12/18 06:48:10;;;;;;;136.80;64.17;;;;;;;;;;4981956;28;20444;-79
2021/12/18 06:50:37;;;;;;;127.73;63.40;;;;;;;;;;4984723;28;20437;-79
2021/12/18 06:53:07;;;;;;;180.87;77.23;;;;;;;;;;4980692;28;20424;-79
2021/12/18 06:55:33;;;;;;;166.07;73.00;;;;;;;;;;4982069;28;20414;-79
2021/12/18 06:58:00;;;;;;;251.77;89.67;;;;;;;;;;4984556;28;20416;-80
2021/12/18 07:00:27;;;;;;;336.63;96.07;;;;;;;;;;4984022;28;20409;-79
2021/12/18 07:02:54;;;;;;;146.30;71.20;;;;;;;;;;4979829;28;20432;-79
2021/12/18 07:05:21;;;;;;;306.87;95.37;;;;;;;;;;4975443;28;20863;-79
2021/12/18 07:07:47;;;;;;;194.03;82.80;;;;;;;;;;4977539;28;20428;-79
2021/12/18 07:10:14;;;;;;;310.13;95.53;;;;;;;;;;4981308;28;20420;-78
2021/12/18 07:12:44;;;;;;;196.67;86.77;;;;;;;;;;4981142;28;20695;-79
2021/12/18 07:15:11;;;;;;;204.93;85.47;;;;;;;;;;4980391;28;20417;-78
2021/12/18 07:17:37;;;;;;;180.80;79.17;;;;;;;;;;4981502;28;20413;-79
2021/12/18 07:20:06;;;;;;;169.77;75.27;;;;;;;;;;4962642;28;20447;-79
2021/12/18 07:22:36;;;;;;;145.20;70.23;;;;;;;;;;4980121;28;20416;-79
2021/12/18 07:25:02;;;;;;;239.20;85.07;;;;;;;;;;4983631;28;20428;-79
2021/12/18 07:27:31;;;;;;;241.67;85.10;;;;;;;;;;4981567;28;20509;-79
2021/12/18 07:29:58;;;;;;;390.53;101.77;;;;;;;;;;4981575;28;20441;-79
2021/12/18 07:32:26;;;;;;;213.63;87.33;;;;;;;;;;4967344;28;21187;-80
2021/12/18 07:34:56;;;;;;;196.73;82.73;;;;;;;;;;4981208;28;20423;-79
2021/12/18 07:37:24;;;;;;;190.83;79.07;;;;;;;;;;4995867;28;20416;-79
2021/12/18 07:39:51;;;;;;;267.47;89.63;;;;;;;;;;4981115;28;20510;-79
2021/12/18 07:42:18;;;;;;;387.23;101.53;;;;;;;;;;4978511;28;21035;-80
2021/12/18 07:44:45;;;;;;;175.03;81.33;;;;;;;;;;4971731;28;20428;-80
2021/12/18 07:47:11;;;;;;;142.60;66.87;;;;;;;;;;4982235;28;21332;-79
2021/12/18 07:49:38;;;;;;;147.37;71.23;;;;;;;;;;4978795;28;21150;-79
2021/12/18 07:52:04;;;;;;;157.97;73.10;;;;;;;;;;4983264;28;20426;-79
2021/12/18 07:54:34;;;;;;;147.07;70.63;;;;;;;;;;4977680;28;20424;-79
2021/12/18 07:57:01;;;;;;;146.23;68.87;;;;;;;;;;4982473;28;21288;-79
2021/12/18 07:59:27;;;;;;;132.40;68.03;;;;;;;;;;4975468;28;20436;-79
2021/12/18 08:01:57;;;;;;;247.10;85.87;;;;;;;;;;4967289;28;20495;-80
2021/12/18 08:04:23;;;;;;;207.00;86.60;;;;;;;;;;4968895;28;21136;-80
2021/12/18 08:06:50;;;;;;;237.77;90.10;;;;;;;;;;4971853;28;21412;-80
2021/12/18 08:09:19;;;;;;;289.97;95.77;;;;;;;;;;4964138;28;20499;-80
2021/12/18 08:12:15;;;;;;;230.77;89.57;;;;;;;;;;4964796;28;20420;-80
2021/12/18 08:15:01;;;;;;;;;;;;;;;;;;;;;
2021/12/18 08:17:45;;;;;;;161.33;74.30;;;;;;;;;;4978664;28;20425;-79
2021/12/18 08:20:29;;;;;;;;;;;;;;;;;;;;;
2021/12/18 08:26:39;;;;;;;362.20;113.00;;;;;;;;;;4950197;28;20429;-79
2021/12/18 08:36:04;;;;;;;230.33;91.97;;;;;;;;;;4846546;29;20907;-80
2021/12/18 08:51:53;;;;;;;;;;;;;;;;;;;;;
2021/12/18 08:54:20;;;;;;;269.97;95.47;;;;;;;;;;4830084;29;20438;-80
2021/12/18 08:56:47;;;;;;;289.83;94.97;;;;;;;;;;4850730;29;21314;-80
2021/12/18 08:59:23;;;;;;;226.93;88.80;;;;;;;;;;4926883;28;20431;-80
2021/12/18 09:02:01;;;;;;;302.90;99.07;;;;;;;;;;4965631;28;20424;-81
2021/12/18 09:04:28;;;;;;;239.23;84.50;;;;;;;;;;4972494;28;20431;-81
2021/12/18 09:07:08;;;;;;;312.10;101.13;;;;;;;;;;4983628;28;21105;-81
2021/12/18 09:09:35;;;;;;;316.33;104.17;;;;;;;;;;4980106;28;21771;-81
2021/12/18 09:12:05;;;;;;;336.83;106.63;;;;;;;;;;4969488;28;20432;-80
2021/12/18 09:14:42;;;;;;;324.93;109.73;;;;;;;;;;4979313;28;21088;-80
2021/12/18 09:20:41;;;;;;;344.83;110.77;;;;;;;;;;4987995;28;20424;-80
2021/12/18 09:23:08;;;;;;;253.67;91.83;;;;;;;;;;4965535;28;20421;-80
2021/12/18 09:25:37;;;;;;;427.63;118.47;;;;;;;;;;4967556;28;21109;-80
2021/12/18 09:28:08;;;;;;;237.73;87.63;;;;;;;;;;4982632;28;20471;-79
2021/12/18 09:30:38;;;;;;;247.70;91.00;;;;;;;;;;4984793;28;20415;-79
2021/12/18 09:33:04;;;;;;;324.67;106.63;;;;;;;;;;4998146;28;20486;-79
2021/12/18 09:35:49;;;;;;;303.27;96.73;;;;;;;;;;4980556;28;20432;-79
2021/12/18 09:38:16;;;;;;;244.17;89.13;;;;;;;;;;4981199;28;21105;-79
2021/12/18 09:41:00;;;;;;;;;;;;;;;;;;;;;
2021/12/18 09:43:28;;;;;;;349.80;105.60;;;;;;;;;;4981134;28;20425;-79
2021/12/18 09:45:57;;;;;;;351.70;105.87;;;;;;;;;;4984437;28;20443;-79
2021/12/18 09:48:36;;;;;;;249.97;90.93;;;;;;;;;;4980219;28;20467;-79
2021/12/18 09:51:40;;;;;;;245.57;85.27;;;;;;;;;;4981307;28;20452;-79
2021/12/18 09:54:13;;;;;;;211.17;82.27;;;;;;;;;;4914243;28;21236;-80
2021/12/18 09:56:42;;;;;;;334.20;99.57;;;;;;;;;;4957647;28;20413;-80
2021/12/18 09:59:09;;;;;;;197.07;75.83;;;;;;;;;;4983772;28;20439;-80
2021/12/18 10:01:37;;;;;;;217.23;83.53;;;;;;;;;;4986208;28;21510;-80
2021/12/18 10:04:23;;;;;;;348.20;101.27;;;;;;;;;;4971001;28;21220;-80
2021/12/18 10:06:49;;;;;;;189.20;76.80;;;;;;;;;;4980513;28;20424;-80
2021/12/18 10:09:19;;;;;;;282.57;99.10;;;;;;;;;;4983126;28;21269;-80
2021/12/18 10:11:54;;;;;;;179.23;77.30;;;;;;;;;;4980938;28;20412;-80
2021/12/18 10:14:32;;;;;;;200.47;80.63;;;;;;;;;;4981951;28;20428;-80
2021/12/18 10:17:02;;;;;;;340.47;100.57;;;;;;;;;;4964352;28;20880;-80
2021/12/18 10:19:35;;;;;;;259.87;88.93;;;;;;;;;;4984092;28;20463;-80
2021/12/18 10:22:08;;;;;;;248.10;92.03;;;;;;;;;;4962853;28;20476;-80
2021/12/18 10:24:59;;;;;;;254.07;85.63;;;;;;;;;;4980330;28;20421;-79
2021/12/18 10:27:36;;;;;;;194.73;78.03;;;;;;;;;;4978674;28;21010;-80
2021/12/18 10:30:27;;;;;;;258.90;94.90;;;;;;;;;;4959927;28;20759;-80
2021/12/18 10:33:00;;;;;;;293.13;98.30;;;;;;;;;;4979504;28;21273;-80
2021/12/18 10:35:43;;;;;;;187.50;76.60;;;;;;;;;;4998236;28;20481;-80
2021/12/18 10:38:30;;;;;;;226.53;91.17;;;;;;;;;;4975509;28;20440;-79
2021/12/18 10:40:59;;;;;;;203.23;84.07;;;;;;;;;;4902646;29;20436;-80
2021/12/18 10:49:50;;;;;;;176.33;76.57;;;;;;;;;;4982931;28;20452;-79
2021/12/18 10:52:36;;;;;;;165.20;71.70;;;;;;;;;;4979538;28;20460;-79
2021/12/18 10:55:28;;;;;;;169.80;71.80;;;;;;;;;;4982227;28;20846;-79
2021/12/18 10:58:13;;;;;;;167.70;70.63;;;;;;;;;;4970558;28;20654;-80
2021/12/18 11:01:04;;;;;;;157.73;70.23;;;;;;;;;;4980798;28;21388;-80
2021/12/18 11:03:55;;;;;;;205.03;84.57;;;;;;;;;;4984788;28;20442;-80
2021/12/18 11:06:25;;;;;;;157.03;71.23;;;;;;;;;;4981589;28;20428;-79
2021/12/18 11:15:01;;;;;;;227.53;89.43;;;;;;;;;;4976136;28;20432;-79
2021/12/18 11:17:28;;;;;;;157.23;69.63;;;;;;;;;;4985240;28;20455;-79
2021/12/18 11:19:57;;;;;;;186.23;77.90;;;;;;;;;;4981736;28;20680;-80
2021/12/18 11:22:23;;;;;;;158.70;71.60;;;;;;;;;;4980550;28;20433;-80
2021/12/18 11:28:19;;;;;;;152.80;69.57;;;;;;;;;;4964266;28;20612;-80
2021/12/18 11:37:05;;;;;;;181.20;73.70;;;;;;;;;;4929600;28;20477;-80
2021/12/18 11:39:44;;;;;;;150.03;69.87;;;;;;;;;;4964657;28;20429;-80
2021/12/18 11:45:35;;;;;;;216.00;83.83;;;;;;;;;;4968981;28;20466;-79
2021/12/18 11:51:23;;;;;;;185.63;78.53;;;;;;;;;;4977330;28;20475;-79
2021/12/18 11:54:06;;;;;;;;;;;;;;;;;;;;;
2021/12/18 12:00:07;;;;;;;185.10;78.70;;;;;;;;;;4982887;28;21091;-79
2021/12/18 12:03:13;;;;;;;191.67;78.63;;;;;;;;;;4893702;29;20489;-79
2021/12/18 12:06:15;;;;;;;190.13;79.80;;;;;;;;;;4900997;29;20435;-79
2021/12/18 12:12:21;;;;;;;255.00;92.03;;;;;;;;;;4844201;29;20629;-79
2021/12/18 13:31:43;;;;;;;176.40;67.10;;;;;;;;;;4982341;28;20431;-78
2021/12/18 13:34:20;;;;;;;161.13;66.20;;;;;;;;;;4982538;28;20428;-79
2021/12/18 13:36:53;;;;;;;155.03;65.33;;;;;;;;;;4982431;28;20992;-79
2021/12/18 13:39:39;;;;;;;169.07;67.40;;;;;;;;;;4994672;28;20468;-79
2021/12/18 13:42:18;;;;;;;207.43;74.27;;;;;;;;;;4980998;28;20437;-79
2021/12/18 13:45:04;;;;;;;191.20;74.97;;;;;;;;;;4982108;28;21316;-79
2021/12/18 13:47:47;;;;;;;164.57;66.77;;;;;;;;;;4966028;28;20432;-79
2021/12/18 13:50:19;;;;;;;159.97;67.90;;;;;;;;;;4966149;28;20462;-79
2021/12/18 13:52:54;;;;;;;163.30;69.73;;;;;;;;;;4981589;28;20421;-79
2021/12/18 13:55:26;;;;;;;156.33;66.70;;;;;;;;;;4962503;28;20437;-79
2021/12/18 13:58:10;;;;;;;161.60;67.37;;;;;;;;;;4980853;28;21249;-79
2021/12/18 14:01:22;;;;;;;195.70;76.03;;;;;;;;;;4979157;28;20515;-79
2021/12/18 14:03:55;;;;;;;174.60;71.03;;;;;;;;;;4981769;28;20939;-79
2021/12/18 14:06:42;;;;;;;212.87;78.13;;;;;;;;;;4966142;28;20539;-79
2021/12/18 14:09:12;;;;;;;208.60;78.40;;;;;;;;;;4984785;28;21051;-79
2021/12/18 14:11:52;;;;;;;207.50;75.03;;;;;;;;;;4983177;28;20460;-79
2021/12/18 14:14:22;;;;;;;156.90;64.80;;;;;;;;;;4957467;28;20427;-79
2021/12/18 14:16:50;;;;;;;195.57;71.23;;;;;;;;;;4962193;28;20722;-79
2021/12/18 14:19:28;;;;;;;172.43;68.13;;;;;;;;;;4982319;28;20428;-79
2021/12/18 14:21:54;;;;;;;142.50;59.87;;;;;;;;;;4980758;28;20436;-79
2021/12/18 14:24:25;;;;;;;145.60;63.53;;;;;;;;;;4984788;28;20433;-79
2021/12/18 14:27:10;;;;;;;176.63;69.30;;;;;;;;;;4982763;28;20539;-79
2021/12/18 14:29:53;;;;;;;222.93;77.37;;;;;;;;;;4981746;28;20448;-79
2021/12/18 14:32:31;;;;;;;204.80;73.70;;;;;;;;;;4981273;28;20419;-79
2021/12/18 14:35:38;;;;;;;257.37;85.03;;;;;;;;;;4962938;28;20506;-79
2021/12/18 14:38:23;;;;;;;205.70;75.20;;;;;;;;;;4976838;28;20440;-79
2021/12/18 14:40:57;;;;;;;196.30;71.93;;;;;;;;;;4978453;28;20542;-78
2021/12/18 14:43:25;;;;;;;169.67;67.03;;;;;;;;;;4981316;28;20425;-78
2021/12/18 14:45:54;;;;;;;179.27;69.93;;;;;;;;;;4992394;28;20970;-79
2021/12/18 14:48:36;;;;;;;180.00;63.47;;;;;;;;;;4965405;28;20879;-79
2021/12/18 14:51:06;;;;;;;170.30;67.60;;;;;;;;;;4999120;28;20455;-78
2021/12/18 14:53:34;;;;;;;275.93;78.67;;;;;;;;;;4975670;28;20420;-78
2021/12/18 14:56:03;;;;;;;246.27;80.13;;;;;;;;;;4980067;28;20468;-78
2021/12/18 14:58:50;;;;;;;261.80;81.40;;;;;;;;;;4975315;28;20440;-78
2021/12/18 15:01:19;;;;;;;241.57;80.50;;;;;;;;;;4994103;28;20484;-78
2021/12/18 15:03:47;;;;;;;303.17;93.77;;;;;;;;;;4980019;28;20537;-77
2021/12/18 15:06:20;;;;;;;237.80;81.43;;;;;;;;;;4977062;28;20421;-77
2021/12/18 15:08:55;;;;;;;279.97;82.80;;;;;;;;;;4992835;28;20452;-78
2021/12/18 15:11:38;;;;;;;196.90;76.37;;;;;;;;;;4975486;28;20423;-78
2021/12/18 15:14:26;;;;;;;183.13;70.40;;;;;;;;;;4993268;28;21164;-78
2021/12/18 15:16:56;;;;;;;193.03;74.73;;;;;;;;;;4959202;28;20456;-79
2021/12/18 15:19:37;;;;;;;322.30;93.73;;;;;;;;;;4966726;28;20426;-79
2021/12/18 15:22:12;;;;;;;206.00;77.73;;;;;;;;;;4978416;28;20439;-78
2021/12/18 15:24:43;;;;;;;419.53;101.33;;;;;;;;;;4977854;28;20430;-79
2021/12/18 15:27:10;;;;;;;377.27;99.53;;;;;;;;;;4980033;28;21204;-79
2021/12/18 15:29:46;;;;;;;264.07;88.13;;;;;;;;;;4962296;28;20934;-78
2021/12/18 15:32:19;;;;;;;316.53;92.87;;;;;;;;;;4976863;28;20424;-79
2021/12/18 15:35:06;;;;;;;362.03;97.03;;;;;;;;;;4962374;28;21092;-79
2021/12/18 15:37:36;;;;;;;229.93;79.47;;;;;;;;;;4980073;28;20416;-79
2021/12/18 15:40:06;;;;;;;246.17;82.57;;;;;;;;;;4953050;28;20440;-79
2021/12/18 15:42:33;;;;;;;236.27;78.43;;;;;;;;;;4977926;28;20424;-78
2021/12/18 15:44:59;;;;;;;261.10;79.73;;;;;;;;;;4970062;28;20450;-78
2021/12/18 15:47:26;;;;;;;213.93;75.90;;;;;;;;;;4961561;28;20421;-79
2021/12/18 15:49:52;;;;;;;379.60;87.83;;;;;;;;;;4979961;28;20680;-79
2021/12/18 15:52:18;;;;;;;361.90;91.90;;;;;;;;;;4962642;28;20942;-78
2021/12/18 15:54:47;;;;;;;458.47;98.77;;;;;;;;;;4980728;28;20511;-80
2021/12/18 15:57:16;;;;;;;269.43;82.17;;;;;;;;;;4962302;28;20428;-79
2021/12/18 15:59:46;;;;;;;310.57;83.93;;;;;;;;;;4976310;28;21272;-78
2021/12/18 16:02:15;;;;;;;405.00;98.73;;;;;;;;;;4980252;28;20543;-79
2021/12/18 16:04:43;;;;;;;431.97;106.13;;;;;;;;;;4966032;28;21098;-79
2021/12/18 16:07:12;;;;;;;206.37;77.30;;;;;;;;;;4969499;28;20432;-79
2021/12/18 16:12:35;;;;;;;237.37;76.43;;;;;;;;;;4975891;28;20420;-79
2021/12/18 16:15:02;;;;;;;511.20;98.93;;;;;;;;;;4977242;28;20435;-79
2021/12/18 16:17:28;;;;;;;325.77;87.00;;;;;;;;;;4964066;28;20514;-79
2021/12/18 16:20:07;;;;;;;338.23;88.53;;;;;;;;;;4963790;28;20809;-79
2021/12/18 16:22:34;;;;;;;187.67;70.33;;;;;;;;;;4965685;28;20548;-79
2021/12/18 16:25:06;;;;;;;371.07;94.10;;;;;;;;;;4979332;28;20436;-79
2021/12/18 16:27:33;;;;;;;227.27;72.70;;;;;;;;;;4977139;28;20436;-79
2021/12/18 16:30:02;;;;;;;214.63;69.40;;;;;;;;;;4991714;28;20455;-79
2021/12/18 16:32:52;;;;;;;375.03;88.00;;;;;;;;;;4966528;28;20452;-79
2021/12/18 16:35:24;;;;;;;255.70;78.50;;;;;;;;;;4978342;28;20520;-78
2021/12/18 16:38:40;;;;;;;237.87;77.50;;;;;;;;;;4975585;28;20527;-78
2021/12/18 16:40:42;;;;;;;213.70;74.43;;;;;;;;;;4966948;28;20471;-78
2021/12/18 16:43:18;;;;;;;281.80;81.83;;;;;;;;;;4971077;28;20440;-78
2021/12/18 16:45:46;;;;;;;285.27;80.53;;;;;;;;;;4975811;28;20428;-78
2021/12/18 16:48:24;;;;;;;223.53;74.37;;;;;;;;;;4961829;28;20529;-78
2021/12/18 16:51:07;;;;;;;179.33;67.00;;;;;;;;;;4982139;28;21182;-78
2021/12/18 16:53:40;;;;;;;296.47;80.10;;;;;;;;;;4968691;28;20952;-78
2021/12/18 16:56:21;;;;;;;221.83;74.53;;;;;;;;;;4986206;28;20439;-79
2021/12/18 16:58:50;;;;;;;189.00;64.53;;;;;;;;;;4985317;28;20420;-79
2021/12/18 17:01:19;;;;;;;285.87;77.67;;;;;;;;;;4962885;28;20453;-79
2021/12/18 17:03:58;;;;;;;310.53;80.17;;;;;;;;;;4962913;28;20456;-79
2021/12/18 17:06:32;;;;;;;181.93;67.00;;;;;;;;;;4946479;28;20582;-79
2021/12/18 17:09:11;;;;;;;383.73;85.93;;;;;;;;;;4960718;28;20487;-79
2021/12/18 17:11:58;;;;;;;296.00;77.83;;;;;;;;;;4979341;28;20423;-79
2021/12/18 17:15:01;;;;;;;386.20;88.23;;;;;;;;;;4965257;28;20419;-80
2021/12/18 17:17:44;;;;;;;314.50;82.40;;;;;;;;;;4965875;28;20543;-80
2021/12/18 17:20:20;;;;;;;224.63;76.50;;;;;;;;;;4960755;28;20432;-80
2021/12/18 17:23:01;;;;;;;426.70;93.17;;;;;;;;;;4981656;28;20863;-80
2021/12/18 17:25:37;;;;;;;;;;;;;;;;;;;;;
2021/12/18 17:28:30;;;;;;;196.80;69.77;;;;;;;;;;4980829;28;20959;-80
2021/12/18 17:31:08;;;;;;;211.10;76.13;;;;;;;;;;4982407;28;20440;-80
2021/12/18 17:33:38;;;;;;;281.53;79.57;;;;;;;;;;4955328;28;20789;-80
2021/12/18 17:36:25;;;;;;;178.77;69.67;;;;;;;;;;4984303;28;20443;-79
2021/12/18 17:38:52;;;;;;;238.33;77.70;;;;;;;;;;4971117;28;20429;-79
2021/12/18 17:41:22;;;;;;;229.73;77.97;;;;;;;;;;4982966;28;20548;-79
2021/12/18 17:46:47;;;;;;;415.07;88.50;;;;;;;;;;4957042;28;20993;-79
2021/12/18 17:49:14;;;;;;;212.53;74.50;;;;;;;;;;4983600;28;20457;-79
2021/12/18 17:51:52;;;;;;;350.00;87.47;;;;;;;;;;4981485;28;20453;-79
2021/12/18 17:54:21;;;;;;;376.00;91.83;;;;;;;;;;4978457;28;20531;-80